createdAt,value
2022-10-28T00:00:26.688Z,4.07
2022-10-28T00:02:53.438Z,4.55
2022-10-28T00:05:21.654Z,4.10
2022-10-28T00:07:48.146Z,4.70
2022-10-28T00:10:14.769Z,4.40
2022-10-28T00:12:41.412Z,5.10
2022-10-28T00:15:08.833Z,5.53
2022-10-28T00:17:35.343Z,4.82
2022-10-28T00:20:01.874Z,5.05
2022-10-28T00:22:29.817Z,4.70
2022-10-28T00:24:56.421Z,4.57
2022-10-28T00:27:23.005Z,4.20
2022-10-28T00:29:49.531Z,3.58
2022-10-28T00:32:16.057Z,3.97
2022-10-28T00:34:42.666Z,3.70
2022-10-28T00:37:09.344Z,3.80
2022-10-28T00:39:37.199Z,4.07
2022-10-28T00:42:04.341Z,3.67
2022-10-28T00:44:48.101Z,4.00
2022-10-28T00:47:21.707Z,3.70
2022-10-28T00:49:51.802Z,3.75
2022-10-28T00:52:21.442Z,4.32
2022-10-28T00:54:51.600Z,4.22
2022-10-28T00:57:22.208Z,4.38
2022-10-28T00:59:51.648Z,5.00
2022-10-28T01:02:18.950Z,4.70
2022-10-28T01:04:47.074Z,4.53
2022-10-28T01:07:15.394Z,4.00
2022-10-28T01:09:42.137Z,3.90
2022-10-28T01:12:19.655Z,3.83
2022-10-28T01:15:01.108Z,3.22
2022-10-28T01:17:40.002Z,4.03
2022-10-28T01:20:46.339Z,3.65
2022-10-28T01:23:22.924Z,3.70
2022-10-28T01:26:17.876Z,3.60
2022-10-28T01:29:14.667Z,3.65
2022-10-28T01:31:46.926Z,3.78
2022-10-28T01:34:24.178Z,4.30
2022-10-28T01:36:59.195Z,3.22
2022-10-28T01:39:33.175Z,3.47
2022-10-28T01:42:09.399Z,3.80
2022-10-28T01:44:44.667Z,3.60
2022-10-28T01:47:16.335Z,3.58
2022-10-28T01:49:49.140Z,3.65
2022-10-28T01:52:21.324Z,3.30
2022-10-28T01:54:51.588Z,3.50
2022-10-28T01:57:19.315Z,3.67
2022-10-28T01:59:48.293Z,3.55
2022-10-28T02:02:18.140Z,3.92
2022-10-28T02:04:44.647Z,3.60
2022-10-28T02:07:11.635Z,3.67
2022-10-28T02:09:50.263Z,3.92
2022-10-28T02:12:26.624Z,4.00
2022-10-28T02:15:18.894Z,3.35
2022-10-28T02:17:57.025Z,3.87
2022-10-28T02:20:34.372Z,3.45
2022-10-28T02:23:09.873Z,3.50
2022-10-28T02:25:43.632Z,3.55
2022-10-28T02:28:16.162Z,3.72
2022-10-28T02:30:46.764Z,3.90
2022-10-28T02:33:18.892Z,3.70
2022-10-28T02:35:51.109Z,3.95
2022-10-28T02:38:23.287Z,3.88
2022-10-28T02:40:53.792Z,3.80
2022-10-28T02:43:22.770Z,4.27
2022-10-28T02:45:54.935Z,3.55
2022-10-28T02:48:28.887Z,3.67
2022-10-28T02:51:00.412Z,4.15
2022-10-28T02:53:31.323Z,4.10
2022-10-28T02:56:02.408Z,3.58
2022-10-28T02:58:29.223Z,3.67
2022-10-28T03:00:55.928Z,3.97
2022-10-28T03:03:23.804Z,4.22
2022-10-28T03:05:50.312Z,3.67
2022-10-28T03:08:16.817Z,4.20
2022-10-28T03:10:43.491Z,4.20
2022-10-28T03:13:10.074Z,3.75
2022-10-28T03:15:36.589Z,5.00
2022-10-28T03:18:03.233Z,4.00
2022-10-28T03:20:31.075Z,4.40
2022-10-28T03:22:57.672Z,3.92
2022-10-28T03:25:24.332Z,4.15
2022-10-28T03:27:50.853Z,4.55
2022-10-28T03:30:17.592Z,4.47
2022-10-28T03:32:44.527Z,3.67
2022-10-28T03:35:11.268Z,4.45
2022-10-28T03:37:41.088Z,4.47
2022-10-28T03:40:08.287Z,4.28
2022-10-28T03:42:37.548Z,4.17
2022-10-28T03:45:07.432Z,4.30
2022-10-28T03:47:34.108Z,3.83
2022-10-28T03:50:00.617Z,4.82
2022-10-28T03:52:27.107Z,4.50
2022-10-28T03:54:55.015Z,4.70
2022-10-28T03:57:21.629Z,4.10
2022-10-28T03:59:48.153Z,4.55
2022-10-28T04:02:14.831Z,4.50
2022-10-28T04:04:41.730Z,4.45
2022-10-28T04:07:08.369Z,3.63
2022-10-28T04:09:34.846Z,4.13
2022-10-28T04:12:02.998Z,3.90
2022-10-28T04:14:29.519Z,4.18
2022-10-28T04:16:56.101Z,4.25
2022-10-28T04:19:22.711Z,4.30
2022-10-28T04:21:49.216Z,3.88
2022-10-28T04:24:15.829Z,3.75
2022-10-28T04:26:42.314Z,3.95
2022-10-28T04:29:10.303Z,4.80
2022-10-28T04:31:36.796Z,4.63
2022-10-28T04:34:03.477Z,4.47
2022-10-28T04:36:30.000Z,4.53
2022-10-28T04:38:56.711Z,5.05
2022-10-28T04:41:23.273Z,5.03
2022-10-28T04:43:49.813Z,4.47
2022-10-28T04:46:17.805Z,4.47
2022-10-28T04:48:46.748Z,4.28
2022-10-28T04:51:13.645Z,4.70
2022-10-28T04:53:40.199Z,3.90
2022-10-28T04:56:07.526Z,3.83
2022-10-28T04:58:34.061Z,3.72
2022-10-28T05:01:06.413Z,4.75
2022-10-28T05:03:34.671Z,3.75
2022-10-28T05:06:01.310Z,4.05
2022-10-28T05:08:27.995Z,4.17
2022-10-28T05:10:54.544Z,3.67
2022-10-28T05:13:21.439Z,3.58
2022-10-28T05:15:48.500Z,3.75
2022-10-28T05:18:15.229Z,3.75
2022-10-28T05:20:43.283Z,4.17
2022-10-28T05:23:10.099Z,3.60
2022-10-28T05:25:36.785Z,3.55
2022-10-28T05:28:03.412Z,3.78
2022-10-28T05:30:30.130Z,4.38
2022-10-28T05:33:00.967Z,4.30
2022-10-28T05:35:27.898Z,4.30
2022-10-28T05:37:55.848Z,3.50
2022-10-28T05:40:22.960Z,3.42
2022-10-28T05:42:49.475Z,4.40
2022-10-28T05:45:16.628Z,3.43
2022-10-28T05:47:44.037Z,3.90
2022-10-28T05:50:10.998Z,3.75
2022-10-28T05:52:37.603Z,3.70
2022-10-28T05:55:06.383Z,4.15
2022-10-28T05:57:34.176Z,4.00
2022-10-28T06:00:00.695Z,3.67
2022-10-28T06:02:27.235Z,4.15
2022-10-28T06:04:53.779Z,4.70
2022-10-28T06:07:20.425Z,4.60
2022-10-28T06:09:46.930Z,4.93
2022-10-28T06:12:13.343Z,4.57
2022-10-28T06:14:39.967Z,4.80
2022-10-28T06:17:07.255Z,5.15
2022-10-28T06:19:33.870Z,4.63
2022-10-28T06:22:00.414Z,4.63
2022-10-28T06:24:27.071Z,5.00
2022-10-28T06:26:53.596Z,4.55
2022-10-28T06:29:21.607Z,4.75
2022-10-28T06:31:48.107Z,4.80
2022-10-28T06:34:14.590Z,5.00
2022-10-28T06:36:41.393Z,5.20
2022-10-28T06:39:07.962Z,5.45
2022-10-28T06:41:34.584Z,4.95
2022-10-28T06:44:01.335Z,5.03
2022-10-28T06:46:29.491Z,4.57
2022-10-28T06:48:57.669Z,4.53
2022-10-28T06:51:25.339Z,4.43
2022-10-28T06:53:52.574Z,3.95
2022-10-28T06:56:19.719Z,3.65
2022-10-28T06:58:49.906Z,3.57
2022-10-28T07:01:16.677Z,3.88
2022-10-28T07:03:44.561Z,3.78
2022-10-28T07:06:11.261Z,3.28
2022-10-28T07:08:37.798Z,3.70
2022-10-28T07:11:04.616Z,3.33
2022-10-28T07:13:31.490Z,3.85
2022-10-28T07:15:59.742Z,3.10
2022-10-28T07:18:28.449Z,4.57
2022-10-28T07:20:58.294Z,4.40
2022-10-28T07:23:24.924Z,4.77
2022-10-28T07:28:20.219Z,4.63
2022-10-28T07:30:46.939Z,5.13
2022-10-28T07:33:13.551Z,5.10
2022-10-28T07:35:40.236Z,5.00
2022-10-28T07:38:08.192Z,5.15
2022-10-28T07:40:34.762Z,5.88
2022-10-28T07:43:01.315Z,5.63
2022-10-28T07:45:28.061Z,8.15
2022-10-28T07:47:54.573Z,6.20
2022-10-28T07:50:22.684Z,5.72
2022-10-28T07:52:49.320Z,4.82
2022-10-28T07:55:17.394Z,4.55
2022-10-28T07:57:43.889Z,4.32
2022-10-28T08:00:10.961Z,4.30
2022-10-28T08:02:38.001Z,4.30
2022-10-28T08:05:05.664Z,4.70
2022-10-28T08:07:34.833Z,4.22
2022-10-28T08:10:05.221Z,4.80
2022-10-28T08:12:33.365Z,5.23
2022-10-28T08:14:59.869Z,4.22
2022-10-28T08:17:26.506Z,3.90
2022-10-28T08:19:53.014Z,4.15
2022-10-28T08:22:19.552Z,4.03
2022-10-28T08:24:46.237Z,4.37
2022-10-28T08:27:12.734Z,4.22
2022-10-28T08:29:40.691Z,3.90
2022-10-28T08:32:08.055Z,4.07
2022-10-28T08:34:36.889Z,3.67
2022-10-28T08:37:06.035Z,3.80
2022-10-28T08:39:32.713Z,4.03
2022-10-28T08:42:15.389Z,4.20
2022-10-28T08:45:09.903Z,3.78
2022-10-28T08:47:48.293Z,3.97
2022-10-28T08:50:17.248Z,4.07
2022-10-28T08:52:48.041Z,4.00
2022-10-28T08:55:18.566Z,3.97
2022-10-28T08:57:50.932Z,3.63
2022-10-28T09:00:22.789Z,3.72
2022-10-28T09:02:58.958Z,3.60
2022-10-28T09:05:27.349Z,3.42
2022-10-28T09:07:55.607Z,4.25
2022-10-28T09:10:54.948Z,3.60
2022-10-28T09:13:28.601Z,4.63
2022-10-28T09:16:07.914Z,3.63
2022-10-28T09:18:50.282Z,3.22
2022-10-28T09:21:20.457Z,3.42
2022-10-28T09:23:54.299Z,2.83
2022-10-28T09:26:41.097Z,3.83
2022-10-28T09:29:21.047Z,2.73
2022-10-28T09:31:53.604Z,3.00
2022-10-28T09:34:31.419Z,2.97
2022-10-28T09:37:03.292Z,2.90
2022-10-28T09:39:37.201Z,2.67
2022-10-28T09:42:04.595Z,3.10
2022-10-28T09:44:41.459Z,2.55
2022-10-28T09:47:15.645Z,3.00
2022-10-28T09:49:43.568Z,3.00
2022-10-28T09:52:16.172Z,3.15
2022-10-28T09:54:49.645Z,2.70
2022-10-28T09:57:17.422Z,2.85
2022-10-28T09:59:44.549Z,2.30
2022-10-28T10:02:24.865Z,2.75
2022-10-28T10:04:51.498Z,2.65
2022-10-28T10:07:27.681Z,2.43
2022-10-28T10:09:55.256Z,3.10
2022-10-28T10:12:21.961Z,2.45
2022-10-28T10:14:51.878Z,2.38
2022-10-28T10:17:25.570Z,2.47
2022-10-28T10:20:00.439Z,2.37
2022-10-28T10:22:30.478Z,2.25
2022-10-28T10:24:57.014Z,2.30
2022-10-28T10:27:26.447Z,2.75
2022-10-28T10:29:54.393Z,2.30
2022-10-28T10:32:25.852Z,2.60
2022-10-28T10:34:59.415Z,2.20
2022-10-28T10:37:27.038Z,2.47
2022-10-28T10:40:05.512Z,2.50
2022-10-28T10:42:32.121Z,2.58
2022-10-28T10:45:01.597Z,2.90
2022-10-28T10:47:30.047Z,2.75
2022-10-28T10:50:21.122Z,2.72
2022-10-28T10:52:50.892Z,2.70
2022-10-28T10:55:26.023Z,2.75
2022-10-28T10:57:53.389Z,2.53
2022-10-28T11:00:21.547Z,2.60
2022-10-28T11:02:53.553Z,2.80
2022-10-28T11:05:27.173Z,2.53
2022-10-28T11:08:02.494Z,3.00
2022-10-28T11:10:31.869Z,3.13
2022-10-28T11:13:02.087Z,3.58
2022-10-28T11:15:30.140Z,2.90
2022-10-28T11:18:02.901Z,2.72
2022-10-28T11:20:42.403Z,2.63
2022-10-28T11:23:29.474Z,3.00
2022-10-28T11:26:01.216Z,2.63
2022-10-28T11:28:43.152Z,3.03
2022-10-28T11:31:27.633Z,2.67
2022-10-28T11:34:09.514Z,2.85
2022-10-28T11:36:44.294Z,2.67
2022-10-28T11:39:20.961Z,2.70
2022-10-28T11:42:01.669Z,2.97
2022-10-28T11:44:41.775Z,2.40
2022-10-28T11:47:27.331Z,2.53
2022-10-28T11:50:22.491Z,3.27
2022-10-28T11:53:27.458Z,2.70
2022-10-28T11:56:02.790Z,2.30
2022-10-28T11:58:41.891Z,2.33
2022-10-28T12:01:40.078Z,2.63
2022-10-28T12:04:32.458Z,2.90
2022-10-28T12:07:22.919Z,2.60
2022-10-28T12:10:06.854Z,2.75
2022-10-28T12:12:43.896Z,2.95
2022-10-28T12:15:19.336Z,3.17
2022-10-28T12:17:50.660Z,2.80
2022-10-28T12:20:23.055Z,2.45
2022-10-28T12:22:54.659Z,2.60
2022-10-28T12:25:26.187Z,3.15
2022-10-28T12:27:55.842Z,3.00
2022-10-28T12:30:26.423Z,3.13
2022-10-28T12:32:58.234Z,2.60
2022-10-28T12:35:27.767Z,2.42
2022-10-28T12:38:02.358Z,2.83
2022-10-28T12:40:35.351Z,2.85
2022-10-28T12:43:09.328Z,3.10
2022-10-28T12:45:38.541Z,3.08
2022-10-28T12:48:16.194Z,3.00
2022-10-28T12:50:49.331Z,2.85
2022-10-28T12:53:27.713Z,3.13
2022-10-28T12:55:58.855Z,2.77
2022-10-28T12:58:31.997Z,3.33
2022-10-28T13:01:02.222Z,2.42
2022-10-28T13:03:28.870Z,2.85
2022-10-28T13:06:14.010Z,2.65
2022-10-28T13:09:07.970Z,2.70
2022-10-28T13:11:50.093Z,2.72
2022-10-28T13:14:32.149Z,3.00
2022-10-28T13:17:21.465Z,3.40
2022-10-28T13:20:03.449Z,3.00
2022-10-28T13:22:47.724Z,2.90
2022-10-28T13:25:31.359Z,2.58
2022-10-28T13:27:59.787Z,2.90
2022-10-28T13:30:28.342Z,2.60
2022-10-28T13:33:03.246Z,3.17
2022-10-28T13:35:30.819Z,2.93
2022-10-28T13:37:59.892Z,2.90
2022-10-28T13:41:03.900Z,3.05
2022-10-28T13:44:13.021Z,2.60
2022-10-28T13:47:16.201Z,2.63
2022-10-28T13:50:14.388Z,2.80
2022-10-28T13:52:42.087Z,2.70
2022-10-28T13:55:24.635Z,2.90
2022-10-28T13:57:52.674Z,2.85
2022-10-28T14:00:37.576Z,2.95
2022-10-28T14:03:06.260Z,3.27
2022-10-28T14:05:56.015Z,4.03
2022-10-28T14:08:27.836Z,2.78
2022-10-28T14:11:01.860Z,3.40
2022-10-28T14:13:31.138Z,3.30
2022-10-28T14:16:21.028Z,3.00
2022-10-28T14:18:54.784Z,3.20
2022-10-28T14:21:22.494Z,3.10
2022-10-28T14:24:08.732Z,3.53
2022-10-28T14:27:27.281Z,2.85
2022-10-28T14:30:23.428Z,2.67
2022-10-28T14:33:11.114Z,3.33
2022-10-28T14:35:41.793Z,2.90
2022-10-28T14:38:46.823Z,3.33
2022-10-28T14:41:38.487Z,2.50
2022-10-28T14:44:16.107Z,2.97
2022-10-28T14:46:59.153Z,2.58
2022-10-28T14:49:30.148Z,3.28
2022-10-28T14:51:59.165Z,2.65
2022-10-28T14:54:36.566Z,2.70
2022-10-28T14:57:07.920Z,2.93
2022-10-28T14:59:38.207Z,3.05
2022-10-28T15:02:12.159Z,2.67
2022-10-28T15:04:43.002Z,2.90
2022-10-28T15:07:13.193Z,3.15
2022-10-28T15:09:40.676Z,2.67
2022-10-28T15:12:09.718Z,3.10
2022-10-28T15:14:38.387Z,2.80
2022-10-28T15:17:13.038Z,3.25
2022-10-28T15:19:41.769Z,2.88
2022-10-28T15:22:18.116Z,3.17
2022-10-28T15:24:55.449Z,3.17
2022-10-28T15:27:22.823Z,3.40
2022-10-28T15:29:50.227Z,3.83
2022-10-28T15:32:26.474Z,4.40
2022-10-28T15:34:54.377Z,3.47
2022-10-28T15:37:22.816Z,3.97
2022-10-28T15:39:50.105Z,3.30
2022-10-28T15:42:42.099Z,3.20
2022-10-28T15:45:18.560Z,3.58
2022-10-28T15:47:46.961Z,3.73
2022-10-28T15:50:33.445Z,3.13
2022-10-28T15:53:32.557Z,3.10
2022-10-28T15:56:20.217Z,2.88
2022-10-28T15:58:48.782Z,2.80
2022-10-28T16:01:36.205Z,3.17
2022-10-28T16:04:03.031Z,3.60
2022-10-28T16:06:33.482Z,4.10
2022-10-28T16:09:06.035Z,4.18
2022-10-28T16:11:35.768Z,4.13
2022-10-28T16:14:07.760Z,3.77
2022-10-28T16:16:34.289Z,3.17
2022-10-28T16:19:07.902Z,3.65
2022-10-28T16:21:37.724Z,3.30
2022-10-28T16:24:04.491Z,3.50
2022-10-28T16:26:31.873Z,3.60
2022-10-28T16:28:58.430Z,3.30
2022-10-28T16:31:27.698Z,4.60
2022-10-28T16:33:54.363Z,3.97
2022-10-28T16:36:21.050Z,3.88
2022-10-28T16:38:48.925Z,3.63
2022-10-28T16:41:17.811Z,5.10
2022-10-28T16:43:45.310Z,4.10
2022-10-28T16:46:12.735Z,4.00
2022-10-28T16:48:40.451Z,3.95
2022-10-28T16:51:12.616Z,3.93
2022-10-28T16:53:39.143Z,3.80
2022-10-28T16:56:11.197Z,3.40
2022-10-28T16:58:40.214Z,4.05
2022-10-28T17:01:06.858Z,4.55
2022-10-28T17:03:33.362Z,3.70
2022-10-28T17:05:59.976Z,5.00
2022-10-28T17:08:49.346Z,4.95
2022-10-28T17:11:15.488Z,4.20
2022-10-28T17:13:42.121Z,3.78
2022-10-28T17:16:08.619Z,4.00
2022-10-28T17:18:35.160Z,4.22
2022-10-28T17:21:02.618Z,4.00
2022-10-28T17:23:29.667Z,5.55
2022-10-28T17:25:56.839Z,5.50
2022-10-28T17:28:24.721Z,5.10
2022-10-28T17:30:51.270Z,4.93
2022-10-28T17:33:17.823Z,3.63
2022-10-28T17:35:44.470Z,3.42
2022-10-28T17:38:11.029Z,3.60
2022-10-28T17:40:37.638Z,3.90
2022-10-28T17:43:04.137Z,4.45
2022-10-28T17:45:32.123Z,3.97
2022-10-28T17:47:59.226Z,4.60
2022-10-28T17:50:25.835Z,3.40
2022-10-28T17:52:53.272Z,3.40
2022-10-28T17:55:20.038Z,2.95
2022-10-28T17:57:46.678Z,3.33
2022-10-28T18:00:14.570Z,3.67
2022-10-28T18:02:42.684Z,3.78
2022-10-28T18:05:09.584Z,3.77
2022-10-28T18:07:36.228Z,3.53
2022-10-28T18:10:02.883Z,3.22
2022-10-28T18:12:29.398Z,3.95
2022-10-28T18:14:55.958Z,3.75
2022-10-28T18:17:22.485Z,4.00
2022-10-28T18:19:50.381Z,3.63
2022-10-28T18:22:16.967Z,3.33
2022-10-28T18:24:43.562Z,3.50
2022-10-28T18:27:10.083Z,4.30
2022-10-28T18:29:36.586Z,3.70
2022-10-28T18:32:03.246Z,3.83
2022-10-28T18:34:30.372Z,3.90
2022-10-28T18:36:58.713Z,3.92
2022-10-28T18:39:25.324Z,3.50
2022-10-28T18:41:51.858Z,3.63
2022-10-28T18:44:18.492Z,3.70
2022-10-28T18:46:47.998Z,3.03
2022-10-28T18:49:14.533Z,3.45
2022-10-28T18:51:41.093Z,3.80
2022-10-28T18:54:08.991Z,3.63
2022-10-28T18:56:35.541Z,4.15
2022-10-28T18:59:03.706Z,3.78
2022-10-28T19:01:30.654Z,3.40
2022-10-28T19:03:58.431Z,3.30
2022-10-28T19:06:26.871Z,3.53
2022-10-28T19:08:55.124Z,3.22
2022-10-28T19:11:24.827Z,3.30
2022-10-28T19:13:51.823Z,3.60
2022-10-28T19:16:18.364Z,3.33
2022-10-28T19:18:44.882Z,3.10
2022-10-28T19:21:13.284Z,3.88
2022-10-28T19:23:40.257Z,3.90
2022-10-28T19:26:07.697Z,3.53
2022-10-28T19:28:39.809Z,3.30
2022-10-28T19:31:08.881Z,3.40
2022-10-28T19:33:36.300Z,3.25
2022-10-28T19:36:05.217Z,3.13
2022-10-28T19:38:33.412Z,3.17
2022-10-28T19:41:07.910Z,3.42
2022-10-28T19:43:35.504Z,3.20
2022-10-28T19:46:08.505Z,3.83
2022-10-28T19:48:35.075Z,3.13
2022-10-28T19:51:01.613Z,3.35
2022-10-28T19:53:28.119Z,4.07
2022-10-28T19:55:59.255Z,3.50
2022-10-28T19:58:26.452Z,3.50
2022-10-28T20:00:57.372Z,3.38
2022-10-28T20:03:25.293Z,3.40
2022-10-28T20:06:03.553Z,3.42
2022-10-28T20:08:30.076Z,3.73
2022-10-28T20:10:58.480Z,3.78
2022-10-28T20:13:25.040Z,3.45
2022-10-28T20:15:51.549Z,3.10
2022-10-28T20:18:18.241Z,3.70
2022-10-28T20:20:46.140Z,3.60
2022-10-28T20:23:12.650Z,3.90
2022-10-28T20:25:39.166Z,3.63
2022-10-28T20:28:05.687Z,3.22
2022-10-28T20:30:32.198Z,3.67
2022-10-28T20:32:58.742Z,3.57
2022-10-28T20:35:25.246Z,4.03
2022-10-28T20:37:54.829Z,4.28
2022-10-28T20:40:21.590Z,3.45
2022-10-28T20:42:48.131Z,4.80
2022-10-28T20:45:14.859Z,3.87
2022-10-28T20:47:41.391Z,3.80
2022-10-28T20:50:08.718Z,3.65
2022-10-28T20:52:35.222Z,3.38
2022-10-28T20:55:03.350Z,3.88
2022-10-28T20:57:29.947Z,3.80
2022-10-28T20:59:56.449Z,3.70
2022-10-28T21:02:23.223Z,4.07
2022-10-28T21:04:49.894Z,3.80
2022-10-28T21:07:16.420Z,3.65
2022-10-28T21:12:10.950Z,3.80
2022-10-28T21:14:37.570Z,3.85
2022-10-28T21:17:04.105Z,3.47
2022-10-28T21:19:30.633Z,4.30
2022-10-28T21:21:57.286Z,4.30
2022-10-28T21:24:23.796Z,4.53
2022-10-28T21:26:52.138Z,4.25
2022-10-28T21:29:20.234Z,3.95
2022-10-28T21:31:46.727Z,3.63
2022-10-28T21:34:13.254Z,4.00
2022-10-28T21:36:39.745Z,3.95
2022-10-28T21:39:06.343Z,4.10
2022-10-28T21:41:32.901Z,4.00
2022-10-28T21:43:59.397Z,3.83
2022-10-28T21:46:27.348Z,3.83
2022-10-28T21:48:54.126Z,3.67
2022-10-28T21:51:20.801Z,3.67
2022-10-28T21:53:47.290Z,3.83
2022-10-28T21:56:17.751Z,3.70
2022-10-28T21:58:45.792Z,4.20
2022-10-28T22:01:14.557Z,3.97
2022-10-28T22:03:42.986Z,5.07
2022-10-28T22:06:09.899Z,4.32
2022-10-28T22:08:36.772Z,4.22
2022-10-28T22:11:05.449Z,4.10
2022-10-28T22:13:32.289Z,3.53
2022-10-28T22:16:00.473Z,4.40
2022-10-28T22:18:28.148Z,4.20
2022-10-28T22:20:56.066Z,4.30
2022-10-28T22:23:22.945Z,3.67
2022-10-28T22:25:59.907Z,3.97
2022-10-28T22:28:26.571Z,3.95
2022-10-28T22:30:58.119Z,4.40
2022-10-28T22:33:24.781Z,4.30
2022-10-28T22:35:57.510Z,3.57
2022-10-28T22:38:24.307Z,3.90
2022-10-28T22:41:01.143Z,4.22
2022-10-28T22:43:27.782Z,3.80
2022-10-28T22:45:55.882Z,4.20
2022-10-28T22:48:22.447Z,4.10
2022-10-28T22:50:49.053Z,4.30
2022-10-28T22:53:16.940Z,4.38
2022-10-28T22:55:43.578Z,4.20
2022-10-28T22:58:10.144Z,4.80
2022-10-28T23:00:36.810Z,4.60
2022-10-28T23:03:03.567Z,4.03
2022-10-28T23:05:30.287Z,4.95
2022-10-28T23:07:56.910Z,4.55
2022-10-28T23:10:24.880Z,4.80
2022-10-28T23:12:55.255Z,4.83
2022-10-28T23:15:22.233Z,4.25
2022-10-28T23:17:48.944Z,4.75
2022-10-28T23:20:15.614Z,4.47
2022-10-28T23:22:42.114Z,4.43
2022-10-28T23:25:09.108Z,4.50
2022-10-28T23:27:38.639Z,4.72
2022-10-28T23:30:06.504Z,4.65
2022-10-28T23:32:33.068Z,4.65
2022-10-28T23:34:59.573Z,4.53
2022-10-28T23:37:26.093Z,5.00
2022-10-28T23:39:52.646Z,4.55
2022-10-28T23:42:19.144Z,4.75
2022-10-28T23:44:47.114Z,5.20
2022-10-28T23:47:13.657Z,5.20
2022-10-28T23:49:40.179Z,5.03
2022-10-28T23:52:06.801Z,4.93
2022-10-28T23:54:33.479Z,4.65
2022-10-28T23:56:59.992Z,4.60
2022-10-28T23:59:26.581Z,4.75
